sensor_id;sensor_type;location;lat;lon;timestamp;temperature;humidity
17423;DHT22;8829;47.932;7.810;2022-10-13T00:00:46;11.60;99.90
17423;DHT22;8829;47.932;7.810;2022-10-13T00:03:13;11.50;99.90
17423;DHT22;8829;47.932;7.810;2022-10-13T00:05:41;11.50;99.90
17423;DHT22;8829;47.932;7.810;2022-10-13T00:08:08;11.40;99.90
17423;DHT22;8829;47.932;7.810;2022-10-13T00:10:36;11.40;99.90
17423;DHT22;8829;47.932;7.810;2022-10-13T00:13:06;11.40;99.90
17423;DHT22;8829;47.932;7.810;2022-10-13T00:15:36;11.30;99.90
17423;DHT22;8829;47.932;7.810;2022-10-13T00:18:03;11.30;99.90
17423;DHT22;8829;47.932;7.810;2022-10-13T00:20:30;11.20;99.90
17423;DHT22;8829;47.932;7.810;2022-10-13T00:22:56;11.20;99.90
17423;DHT22;8829;47.932;7.810;2022-10-13T00:25:23;11.20;99.90
17423;DHT22;8829;47.932;7.810;2022-10-13T00:27:50;11.10;99.90
17423;DHT22;8829;47.932;7.810;2022-10-13T00:30:18;11.10;99.90
17423;DHT22;8829;47.932;7.810;2022-10-13T00:32:45;11.10;99.90
17423;DHT22;8829;47.932;7.810;2022-10-13T00:35:11;11.00;99.90
17423;DHT22;8829;47.932;7.810;2022-10-13T00:37:38;11.00;99.90
17423;DHT22;8829;47.932;7.810;2022-10-13T00:40:06;10.90;99.90
17423;DHT22;8829;47.932;7.810;2022-10-13T00:42:33;10.90;99.90
17423;DHT22;8829;47.932;7.810;2022-10-13T00:45:03;10.90;99.90
17423;DHT22;8829;47.932;7.810;2022-10-13T00:47:36;10.80;99.90
17423;DHT22;8829;47.932;7.810;2022-10-13T00:50:05;10.90;99.90
17423;DHT22;8829;47.932;7.810;2022-10-13T00:52:33;10.80;99.90
17423;DHT22;8829;47.932;7.810;2022-10-13T00:55:02;10.80;99.90
17423;DHT22;8829;47.932;7.810;2022-10-13T00:57:29;10.80;99.90
17423;DHT22;8829;47.932;7.810;2022-10-13T00:59:56;10.80;99.90
17423;DHT22;8829;47.932;7.810;2022-10-13T01:02:28;10.70;99.90
17423;DHT22;8829;47.932;7.810;2022-10-13T01:04:59;10.70;99.90
17423;DHT22;8829;47.932;7.810;2022-10-13T01:07:27;10.70;99.90
17423;DHT22;8829;47.932;7.810;2022-10-13T01:09:53;10.70;99.90
17423;DHT22;8829;47.932;7.810;2022-10-13T01:12:29;10.70;99.90
17423;DHT22;8829;47.932;7.810;2022-10-13T01:15:05;10.70;99.90
17423;DHT22;8829;47.932;7.810;2022-10-13T01:17:40;10.70;99.90
17423;DHT22;8829;47.932;7.810;2022-10-13T01:20:39;10.70;99.90
17423;DHT22;8829;47.932;7.810;2022-10-13T01:26:31;10.70;99.90
17423;DHT22;8829;47.932;7.810;2022-10-13T01:29:19;10.80;99.90
17423;DHT22;8829;47.932;7.810;2022-10-13T01:31:58;10.70;99.90
17423;DHT22;8829;47.932;7.810;2022-10-13T01:34:32;10.70;99.90
17423;DHT22;8829;47.932;7.810;2022-10-13T01:37:03;10.70;99.90
17423;DHT22;8829;47.932;7.810;2022-10-13T01:39:37;10.70;99.90
17423;DHT22;8829;47.932;7.810;2022-10-13T01:42:13;10.60;99.90
17423;DHT22;8829;47.932;7.810;2022-10-13T01:44:45;10.60;99.90
17423;DHT22;8829;47.932;7.810;2022-10-13T01:47:16;10.60;99.90
17423;DHT22;8829;47.932;7.810;2022-10-13T01:49:45;10.60;99.90
17423;DHT22;8829;47.932;7.810;2022-10-13T01:52:14;10.60;99.90
17423;DHT22;8829;47.932;7.810;2022-10-13T01:54:42;10.60;99.90
17423;DHT22;8829;47.932;7.810;2022-10-13T01:57:29;10.70;99.90
17423;DHT22;8829;47.932;7.810;2022-10-13T01:59:57;10.60;99.90
17423;DHT22;8829;47.932;7.810;2022-10-13T02:02:30;10.70;99.90
17423;DHT22;8829;47.932;7.810;2022-10-13T02:05:04;10.80;99.90
17423;DHT22;8829;47.932;7.810;2022-10-13T02:07:38;10.80;99.90
17423;DHT22;8829;47.932;7.810;2022-10-13T02:10:13;10.60;99.90
17423;DHT22;8829;47.932;7.810;2022-10-13T02:12:45;10.60;99.90
17423;DHT22;8829;47.932;7.810;2022-10-13T02:15:16;10.60;99.90
17423;DHT22;8829;47.932;7.810;2022-10-13T02:17:46;10.60;99.90
17423;DHT22;8829;47.932;7.810;2022-10-13T02:20:15;10.70;99.90
17423;DHT22;8829;47.932;7.810;2022-10-13T02:22:45;10.80;99.90
17423;DHT22;8829;47.932;7.810;2022-10-13T02:25:12;10.80;99.90
17423;DHT22;8829;47.932;7.810;2022-10-13T02:27:39;10.80;99.90
17423;DHT22;8829;47.932;7.810;2022-10-13T02:30:08;10.70;99.90
17423;DHT22;8829;47.932;7.810;2022-10-13T02:32:35;10.70;99.90
17423;DHT22;8829;47.932;7.810;2022-10-13T02:35:03;10.60;99.90
17423;DHT22;8829;47.932;7.810;2022-10-13T02:37:30;10.60;99.90
17423;DHT22;8829;47.932;7.810;2022-10-13T02:39:58;10.60;99.90
17423;DHT22;8829;47.932;7.810;2022-10-13T02:42:24;10.60;99.90
17423;DHT22;8829;47.932;7.810;2022-10-13T02:44:51;10.60;99.90
17423;DHT22;8829;47.932;7.810;2022-10-13T02:47:18;10.50;99.90
17423;DHT22;8829;47.932;7.810;2022-10-13T02:49:45;10.50;99.90
17423;DHT22;8829;47.932;7.810;2022-10-13T02:52:13;10.50;99.90
17423;DHT22;8829;47.932;7.810;2022-10-13T02:54:40;10.40;99.90
17423;DHT22;8829;47.932;7.810;2022-10-13T02:57:06;10.40;99.90
17423;DHT22;8829;47.932;7.810;2022-10-13T02:59:33;10.40;99.90
17423;DHT22;8829;47.932;7.810;2022-10-13T03:02:00;10.40;99.90
17423;DHT22;8829;47.932;7.810;2022-10-13T03:04:27;10.30;99.90
17423;DHT22;8829;47.932;7.810;2022-10-13T03:06:53;10.30;99.90
17423;DHT22;8829;47.932;7.810;2022-10-13T03:09:22;10.40;99.90
17423;DHT22;8829;47.932;7.810;2022-10-13T03:11:48;10.40;99.90
17423;DHT22;8829;47.932;7.810;2022-10-13T03:14:15;10.40;99.90
17423;DHT22;8829;47.932;7.810;2022-10-13T03:16:42;10.40;99.90
17423;DHT22;8829;47.932;7.810;2022-10-13T03:19:09;10.50;99.90
17423;DHT22;8829;47.932;7.810;2022-10-13T03:21:36;10.60;99.90
17423;DHT22;8829;47.932;7.810;2022-10-13T03:24:03;10.70;99.90
17423;DHT22;8829;47.932;7.810;2022-10-13T03:26:32;10.70;99.90
17423;DHT22;8829;47.932;7.810;2022-10-13T03:28:59;10.60;99.90
17423;DHT22;8829;47.932;7.810;2022-10-13T03:31:26;10.60;99.90
17423;DHT22;8829;47.932;7.810;2022-10-13T03:33:53;10.50;99.90
17423;DHT22;8829;47.932;7.810;2022-10-13T03:36:20;10.50;99.90
17423;DHT22;8829;47.932;7.810;2022-10-13T03:38:47;10.50;99.90
17423;DHT22;8829;47.932;7.810;2022-10-13T03:41:15;10.50;99.90
17423;DHT22;8829;47.932;7.810;2022-10-13T03:43:44;10.50;99.90
17423;DHT22;8829;47.932;7.810;2022-10-13T03:46:12;10.60;99.90
17423;DHT22;8829;47.932;7.810;2022-10-13T03:48:40;10.50;99.90
17423;DHT22;8829;47.932;7.810;2022-10-13T03:51:09;10.50;99.90
17423;DHT22;8829;47.932;7.810;2022-10-13T03:53:36;10.50;99.90
17423;DHT22;8829;47.932;7.810;2022-10-13T03:56:03;10.60;99.90
17423;DHT22;8829;47.932;7.810;2022-10-13T03:58:31;10.50;99.90
17423;DHT22;8829;47.932;7.810;2022-10-13T04:01:03;10.60;99.90
17423;DHT22;8829;47.932;7.810;2022-10-13T04:03:31;10.60;99.90
17423;DHT22;8829;47.932;7.810;2022-10-13T04:05:59;10.60;99.90
17423;DHT22;8829;47.932;7.810;2022-10-13T04:08:26;10.50;99.90
17423;DHT22;8829;47.932;7.810;2022-10-13T04:10:58;10.60;99.90
17423;DHT22;8829;47.932;7.810;2022-10-13T04:13:25;10.50;99.90
17423;DHT22;8829;47.932;7.810;2022-10-13T04:15:52;10.50;99.90
17423;DHT22;8829;47.932;7.810;2022-10-13T04:18:20;10.50;99.90
17423;DHT22;8829;47.932;7.810;2022-10-13T04:20:47;10.50;99.90
17423;DHT22;8829;47.932;7.810;2022-10-13T04:23:14;10.50;99.90
17423;DHT22;8829;47.932;7.810;2022-10-13T04:25:40;10.50;99.90
17423;DHT22;8829;47.932;7.810;2022-10-13T04:28:07;10.60;99.90
17423;DHT22;8829;47.932;7.810;2022-10-13T04:30:34;10.60;99.90
17423;DHT22;8829;47.932;7.810;2022-10-13T04:33:01;10.60;99.90
17423;DHT22;8829;47.932;7.810;2022-10-13T04:35:29;10.70;99.90
17423;DHT22;8829;47.932;7.810;2022-10-13T04:37:56;10.70;99.90
17423;DHT22;8829;47.932;7.810;2022-10-13T04:40:23;10.70;99.90
17423;DHT22;8829;47.932;7.810;2022-10-13T04:42:50;10.70;99.90
17423;DHT22;8829;47.932;7.810;2022-10-13T04:45:17;10.70;99.90
17423;DHT22;8829;47.932;7.810;2022-10-13T04:47:44;10.70;99.90
17423;DHT22;8829;47.932;7.810;2022-10-13T04:50:11;10.70;99.90
17423;DHT22;8829;47.932;7.810;2022-10-13T04:52:39;10.60;99.90
17423;DHT22;8829;47.932;7.810;2022-10-13T04:55:06;10.60;99.90
17423;DHT22;8829;47.932;7.810;2022-10-13T04:57:33;10.70;99.90
17423;DHT22;8829;47.932;7.810;2022-10-13T05:00:00;10.80;99.90
17423;DHT22;8829;47.932;7.810;2022-10-13T05:02:27;10.60;99.90
17423;DHT22;8829;47.932;7.810;2022-10-13T05:04:53;10.60;99.90
17423;DHT22;8829;47.932;7.810;2022-10-13T05:07:20;10.60;99.90
17423;DHT22;8829;47.932;7.810;2022-10-13T05:09:49;10.50;99.90
17423;DHT22;8829;47.932;7.810;2022-10-13T05:12:16;10.50;99.90
17423;DHT22;8829;47.932;7.810;2022-10-13T05:14:43;10.50;99.90
17423;DHT22;8829;47.932;7.810;2022-10-13T05:17:10;10.50;99.90
17423;DHT22;8829;47.932;7.810;2022-10-13T05:19:36;10.60;99.90
17423;DHT22;8829;47.932;7.810;2022-10-13T05:22:03;10.40;99.90
17423;DHT22;8829;47.932;7.810;2022-10-13T05:24:30;10.30;99.90
17423;DHT22;8829;47.932;7.810;2022-10-13T05:27:03;10.30;99.90
17423;DHT22;8829;47.932;7.810;2022-10-13T05:29:30;10.30;99.90
17423;DHT22;8829;47.932;7.810;2022-10-13T05:31:57;10.40;99.90
17423;DHT22;8829;47.932;7.810;2022-10-13T05:34:23;10.40;99.90
17423;DHT22;8829;47.932;7.810;2022-10-13T05:36:50;10.40;99.90
17423;DHT22;8829;47.932;7.810;2022-10-13T05:39:17;10.40;99.90
17423;DHT22;8829;47.932;7.810;2022-10-13T05:41:44;10.40;99.90
17423;DHT22;8829;47.932;7.810;2022-10-13T05:44:12;10.40;99.90
17423;DHT22;8829;47.932;7.810;2022-10-13T05:46:42;10.40;99.90
17423;DHT22;8829;47.932;7.810;2022-10-13T05:49:09;10.50;99.90
17423;DHT22;8829;47.932;7.810;2022-10-13T05:51:37;10.50;99.90
17423;DHT22;8829;47.932;7.810;2022-10-13T05:54:07;10.40;99.90
17423;DHT22;8829;47.932;7.810;2022-10-13T05:56:38;10.50;99.90
17423;DHT22;8829;47.932;7.810;2022-10-13T05:59:10;10.50;99.90
17423;DHT22;8829;47.932;7.810;2022-10-13T06:01:41;10.40;99.90
17423;DHT22;8829;47.932;7.810;2022-10-13T06:04:10;10.40;99.90
17423;DHT22;8829;47.932;7.810;2022-10-13T06:06:39;10.60;99.90
17423;DHT22;8829;47.932;7.810;2022-10-13T06:09:06;10.70;99.90
17423;DHT22;8829;47.932;7.810;2022-10-13T06:11:33;10.80;99.90
17423;DHT22;8829;47.932;7.810;2022-10-13T06:14:00;11.00;99.90
17423;DHT22;8829;47.932;7.810;2022-10-13T06:16:26;11.10;99.90
17423;DHT22;8829;47.932;7.810;2022-10-13T06:18:55;11.00;99.90
17423;DHT22;8829;47.932;7.810;2022-10-13T06:21:21;11.00;99.90
17423;DHT22;8829;47.932;7.810;2022-10-13T06:23:48;11.00;99.90
17423;DHT22;8829;47.932;7.810;2022-10-13T06:26:15;11.10;99.90
17423;DHT22;8829;47.932;7.810;2022-10-13T06:28:42;11.10;99.90
17423;DHT22;8829;47.932;7.810;2022-10-13T06:31:08;11.00;99.90
17423;DHT22;8829;47.932;7.810;2022-10-13T06:33:35;11.00;99.90
17423;DHT22;8829;47.932;7.810;2022-10-13T06:36:05;10.90;99.90
17423;DHT22;8829;47.932;7.810;2022-10-13T06:38:32;10.90;99.90
17423;DHT22;8829;47.932;7.810;2022-10-13T06:41:00;11.10;99.90
17423;DHT22;8829;47.932;7.810;2022-10-13T06:43:26;11.30;99.90
17423;DHT22;8829;47.932;7.810;2022-10-13T06:45:56;11.50;99.90
17423;DHT22;8829;47.932;7.810;2022-10-13T06:48:23;11.60;99.90
17423;DHT22;8829;47.932;7.810;2022-10-13T06:50:50;11.70;99.90
17423;DHT22;8829;47.932;7.810;2022-10-13T06:53:18;11.70;99.90
17423;DHT22;8829;47.932;7.810;2022-10-13T06:55:45;11.70;99.90
17423;DHT22;8829;47.932;7.810;2022-10-13T06:58:12;11.70;99.90
17423;DHT22;8829;47.932;7.810;2022-10-13T07:00:40;11.80;99.90
17423;DHT22;8829;47.932;7.810;2022-10-13T07:03:07;11.90;99.90
17423;DHT22;8829;47.932;7.810;2022-10-13T07:05:34;12.00;99.90
17423;DHT22;8829;47.932;7.810;2022-10-13T07:08:00;12.10;99.90
17423;DHT22;8829;47.932;7.810;2022-10-13T07:10:28;12.10;99.90
17423;DHT22;8829;47.932;7.810;2022-10-13T07:12:56;12.20;99.90
17423;DHT22;8829;47.932;7.810;2022-10-13T07:15:23;12.10;99.90
17423;DHT22;8829;47.932;7.810;2022-10-13T07:17:50;11.80;99.90
17423;DHT22;8829;47.932;7.810;2022-10-13T07:20:18;11.80;99.90
17423;DHT22;8829;47.932;7.810;2022-10-13T07:22:46;11.90;99.90
17423;DHT22;8829;47.932;7.810;2022-10-13T07:25:13;11.60;99.90
17423;DHT22;8829;47.932;7.810;2022-10-13T07:27:42;11.30;99.90
17423;DHT22;8829;47.932;7.810;2022-10-13T07:30:09;11.30;99.90
17423;DHT22;8829;47.932;7.810;2022-10-13T07:32:37;11.40;99.90
17423;DHT22;8829;47.932;7.810;2022-10-13T07:35:06;11.40;99.90
17423;DHT22;8829;47.932;7.810;2022-10-13T07:37:33;11.30;99.90
17423;DHT22;8829;47.932;7.810;2022-10-13T07:40:01;11.40;99.90
17423;DHT22;8829;47.932;7.810;2022-10-13T07:42:28;11.50;99.90
17423;DHT22;8829;47.932;7.810;2022-10-13T07:44:56;11.70;99.90
17423;DHT22;8829;47.932;7.810;2022-10-13T07:47:23;11.90;99.90
17423;DHT22;8829;47.932;7.810;2022-10-13T07:49:49;12.10;99.90
17423;DHT22;8829;47.932;7.810;2022-10-13T07:52:16;12.20;99.90
17423;DHT22;8829;47.932;7.810;2022-10-13T07:54:43;12.40;99.90
17423;DHT22;8829;47.932;7.810;2022-10-13T07:57:10;12.70;99.90
17423;DHT22;8829;47.932;7.810;2022-10-13T07:59:37;13.00;99.90
17423;DHT22;8829;47.932;7.810;2022-10-13T08:02:05;13.20;99.90
17423;DHT22;8829;47.932;7.810;2022-10-13T08:04:33;13.30;99.90
17423;DHT22;8829;47.932;7.810;2022-10-13T08:07:00;13.50;99.90
17423;DHT22;8829;47.932;7.810;2022-10-13T08:09:27;13.60;99.90
17423;DHT22;8829;47.932;7.810;2022-10-13T08:11:54;13.70;99.90
17423;DHT22;8829;47.932;7.810;2022-10-13T08:14:21;13.80;99.90
17423;DHT22;8829;47.932;7.810;2022-10-13T08:16:47;13.90;99.90
17423;DHT22;8829;47.932;7.810;2022-10-13T08:19:16;13.90;99.90
17423;DHT22;8829;47.932;7.810;2022-10-13T08:21:44;14.10;99.90
17423;DHT22;8829;47.932;7.810;2022-10-13T08:24:13;14.20;99.90
17423;DHT22;8829;47.932;7.810;2022-10-13T08:26:41;14.20;99.90
17423;DHT22;8829;47.932;7.810;2022-10-13T08:29:08;14.30;99.90
17423;DHT22;8829;47.932;7.810;2022-10-13T08:31:37;14.30;99.90
17423;DHT22;8829;47.932;7.810;2022-10-13T08:34:04;14.30;99.90
17423;DHT22;8829;47.932;7.810;2022-10-13T08:36:32;14.30;99.90
17423;DHT22;8829;47.932;7.810;2022-10-13T08:38:59;14.40;99.90
17423;DHT22;8829;47.932;7.810;2022-10-13T08:41:28;14.40;99.90
17423;DHT22;8829;47.932;7.810;2022-10-13T08:43:59;14.40;99.90
17423;DHT22;8829;47.932;7.810;2022-10-13T08:46:29;14.40;99.90
17423;DHT22;8829;47.932;7.810;2022-10-13T08:48:59;14.50;99.90
17423;DHT22;8829;47.932;7.810;2022-10-13T08:51:27;14.50;99.90
17423;DHT22;8829;47.932;7.810;2022-10-13T08:53:56;14.40;99.90
17423;DHT22;8829;47.932;7.810;2022-10-13T08:56:25;14.30;99.90
17423;DHT22;8829;47.932;7.810;2022-10-13T08:58:53;14.20;99.90
17423;DHT22;8829;47.932;7.810;2022-10-13T09:01:23;14.30;99.90
17423;DHT22;8829;47.932;7.810;2022-10-13T09:03:53;14.20;99.90
17423;DHT22;8829;47.932;7.810;2022-10-13T09:06:22;14.40;99.90
17423;DHT22;8829;47.932;7.810;2022-10-13T09:08:57;14.40;99.90
17423;DHT22;8829;47.932;7.810;2022-10-13T09:11:28;14.60;99.90
17423;DHT22;8829;47.932;7.810;2022-10-13T09:13:59;14.70;99.90
17423;DHT22;8829;47.932;7.810;2022-10-13T09:16:28;14.80;99.90
17423;DHT22;8829;47.932;7.810;2022-10-13T09:19:16;14.70;99.90
17423;DHT22;8829;47.932;7.810;2022-10-13T09:21:45;14.90;99.90
17423;DHT22;8829;47.932;7.810;2022-10-13T09:24:15;14.90;99.90
17423;DHT22;8829;47.932;7.810;2022-10-13T09:26:44;14.90;99.90
17423;DHT22;8829;47.932;7.810;2022-10-13T09:29:21;14.90;99.90
17423;DHT22;8829;47.932;7.810;2022-10-13T09:31:49;14.90;99.90
17423;DHT22;8829;47.932;7.810;2022-10-13T09:34:22;14.90;99.90
17423;DHT22;8829;47.932;7.810;2022-10-13T09:36:57;15.00;99.90
17423;DHT22;8829;47.932;7.810;2022-10-13T09:39:26;15.10;99.90
17423;DHT22;8829;47.932;7.810;2022-10-13T09:42:16;15.10;99.90
17423;DHT22;8829;47.932;7.810;2022-10-13T09:44:44;15.10;99.90
17423;DHT22;8829;47.932;7.810;2022-10-13T09:47:17;15.00;99.90
17423;DHT22;8829;47.932;7.810;2022-10-13T09:49:57;15.00;99.90
17423;DHT22;8829;47.932;7.810;2022-10-13T09:52:25;15.10;99.90
17423;DHT22;8829;47.932;7.810;2022-10-13T09:54:56;15.30;99.90
17423;DHT22;8829;47.932;7.810;2022-10-13T09:57:36;15.40;99.90
17423;DHT22;8829;47.932;7.810;2022-10-13T10:00:18;15.40;99.90
17423;DHT22;8829;47.932;7.810;2022-10-13T10:02:50;15.60;99.90
17423;DHT22;8829;47.932;7.810;2022-10-13T10:05:24;15.70;99.90
17423;DHT22;8829;47.932;7.810;2022-10-13T10:07:51;15.80;99.90
17423;DHT22;8829;47.932;7.810;2022-10-13T10:10:39;15.80;99.90
17423;DHT22;8829;47.932;7.810;2022-10-13T10:13:09;16.00;99.90
17423;DHT22;8829;47.932;7.810;2022-10-13T10:15:44;16.10;99.90
17423;DHT22;8829;47.932;7.810;2022-10-13T10:18:16;16.10;99.90
17423;DHT22;8829;47.932;7.810;2022-10-13T10:20:53;16.10;99.90
17423;DHT22;8829;47.932;7.810;2022-10-13T10:23:31;16.20;99.90
17423;DHT22;8829;47.932;7.810;2022-10-13T10:26:04;16.10;99.90
17423;DHT22;8829;47.932;7.810;2022-10-13T10:29:01;16.10;99.90
17423;DHT22;8829;47.932;7.810;2022-10-13T10:31:39;16.10;99.90
17423;DHT22;8829;47.932;7.810;2022-10-13T10:34:26;16.20;99.90
17423;DHT22;8829;47.932;7.810;2022-10-13T10:37:05;16.20;99.90
17423;DHT22;8829;47.932;7.810;2022-10-13T10:39:45;16.40;99.90
17423;DHT22;8829;47.932;7.810;2022-10-13T10:42:34;16.60;99.90
17423;DHT22;8829;47.932;7.810;2022-10-13T10:45:13;16.70;99.90
17423;DHT22;8829;47.932;7.810;2022-10-13T10:47:44;16.80;99.90
17423;DHT22;8829;47.932;7.810;2022-10-13T10:50:13;16.90;99.90
17423;DHT22;8829;47.932;7.810;2022-10-13T10:52:48;16.90;99.90
17423;DHT22;8829;47.932;7.810;2022-10-13T10:55:19;17.00;99.90
17423;DHT22;8829;47.932;7.810;2022-10-13T10:57:59;17.00;99.90
17423;DHT22;8829;47.932;7.810;2022-10-13T11:00:28;17.00;99.90
17423;DHT22;8829;47.932;7.810;2022-10-13T11:03:00;17.10;99.90
17423;DHT22;8829;47.932;7.810;2022-10-13T11:06:02;17.10;99.90
17423;DHT22;8829;47.932;7.810;2022-10-13T11:08:38;17.20;99.90
17423;DHT22;8829;47.932;7.810;2022-10-13T11:14:26;17.30;99.90
17423;DHT22;8829;47.932;7.810;2022-10-13T11:17:15;17.50;99.90
17423;DHT22;8829;47.932;7.810;2022-10-13T11:19:43;17.40;99.90
17423;DHT22;8829;47.932;7.810;2022-10-13T11:22:13;17.50;99.90
17423;DHT22;8829;47.932;7.810;2022-10-13T11:25:02;17.60;99.90
17423;DHT22;8829;47.932;7.810;2022-10-13T11:27:43;17.60;99.90
17423;DHT22;8829;47.932;7.810;2022-10-13T11:30:41;17.60;99.90
17423;DHT22;8829;47.932;7.810;2022-10-13T11:33:31;17.70;99.90
17423;DHT22;8829;47.932;7.810;2022-10-13T11:39:42;17.70;99.90
17423;DHT22;8829;47.932;7.810;2022-10-13T11:42:35;17.80;99.90
17423;DHT22;8829;47.932;7.810;2022-10-13T11:45:17;17.80;99.90
17423;DHT22;8829;47.932;7.810;2022-10-13T11:47:58;17.70;99.90
17423;DHT22;8829;47.932;7.810;2022-10-13T11:50:35;17.70;99.90
17423;DHT22;8829;47.932;7.810;2022-10-13T11:53:10;17.70;99.90
17423;DHT22;8829;47.932;7.810;2022-10-13T11:55:47;17.70;99.90
17423;DHT22;8829;47.932;7.810;2022-10-13T11:58:16;17.60;99.90
17423;DHT22;8829;47.932;7.810;2022-10-13T12:00:51;17.60;99.90
17423;DHT22;8829;47.932;7.810;2022-10-13T12:03:19;17.60;99.90
17423;DHT22;8829;47.932;7.810;2022-10-13T12:05:47;17.60;99.90
17423;DHT22;8829;47.932;7.810;2022-10-13T12:08:15;17.80;99.90
17423;DHT22;8829;47.932;7.810;2022-10-13T12:10:44;17.90;99.90
17423;DHT22;8829;47.932;7.810;2022-10-13T12:13:19;17.90;99.90
17423;DHT22;8829;47.932;7.810;2022-10-13T12:15:47;17.90;99.90
17423;DHT22;8829;47.932;7.810;2022-10-13T12:18:22;18.00;99.90
17423;DHT22;8829;47.932;7.810;2022-10-13T12:20:53;18.00;99.90
17423;DHT22;8829;47.932;7.810;2022-10-13T12:23:20;18.00;99.90
17423;DHT22;8829;47.932;7.810;2022-10-13T12:25:49;18.00;99.90
17423;DHT22;8829;47.932;7.810;2022-10-13T12:28:21;17.90;99.90
17423;DHT22;8829;47.932;7.810;2022-10-13T12:30:51;17.90;99.90
17423;DHT22;8829;47.932;7.810;2022-10-13T12:33:22;17.90;99.90
17423;DHT22;8829;47.932;7.810;2022-10-13T12:35:49;17.90;99.90
17423;DHT22;8829;47.932;7.810;2022-10-13T12:38:17;18.00;99.90
17423;DHT22;8829;47.932;7.810;2022-10-13T12:40:47;18.00;99.90
17423;DHT22;8829;47.932;7.810;2022-10-13T12:43:17;18.00;99.90
17423;DHT22;8829;47.932;7.810;2022-10-13T12:45:44;18.10;99.90
17423;DHT22;8829;47.932;7.810;2022-10-13T12:48:30;18.00;99.90
17423;DHT22;8829;47.932;7.810;2022-10-13T12:51:07;18.00;99.90
17423;DHT22;8829;47.932;7.810;2022-10-13T12:53:36;18.00;99.90
17423;DHT22;8829;47.932;7.810;2022-10-13T12:56:06;18.10;99.90
17423;DHT22;8829;47.932;7.810;2022-10-13T12:58:34;18.00;99.90
17423;DHT22;8829;47.932;7.810;2022-10-13T13:01:16;18.00;99.90
17423;DHT22;8829;47.932;7.810;2022-10-13T13:03:44;17.90;99.90
17423;DHT22;8829;47.932;7.810;2022-10-13T13:06:23;17.90;99.90
17423;DHT22;8829;47.932;7.810;2022-10-13T13:12:24;17.90;99.90
17423;DHT22;8829;47.932;7.810;2022-10-13T13:14:52;17.80;99.90
17423;DHT22;8829;47.932;7.810;2022-10-13T13:17:23;17.80;99.90
17423;DHT22;8829;47.932;7.810;2022-10-13T13:19:52;17.90;99.90
17423;DHT22;8829;47.932;7.810;2022-10-13T13:22:19;17.90;99.90
17423;DHT22;8829;47.932;7.810;2022-10-13T13:24:47;17.90;99.90
17423;DHT22;8829;47.932;7.810;2022-10-13T13:27:17;17.90;99.90
17423;DHT22;8829;47.932;7.810;2022-10-13T13:29:45;17.90;99.90
17423;DHT22;8829;47.932;7.810;2022-10-13T13:32:14;17.90;99.90
17423;DHT22;8829;47.932;7.810;2022-10-13T13:34:41;17.90;99.90
17423;DHT22;8829;47.932;7.810;2022-10-13T13:37:12;18.00;99.90
17423;DHT22;8829;47.932;7.810;2022-10-13T13:39:39;18.00;99.90
17423;DHT22;8829;47.932;7.810;2022-10-13T13:42:11;18.00;99.90
17423;DHT22;8829;47.932;7.810;2022-10-13T13:44:39;17.90;99.90
17423;DHT22;8829;47.932;7.810;2022-10-13T13:47:16;17.90;99.90
17423;DHT22;8829;47.932;7.810;2022-10-13T13:49:43;17.90;99.90
17423;DHT22;8829;47.932;7.810;2022-10-13T13:52:10;17.90;99.90
17423;DHT22;8829;47.932;7.810;2022-10-13T13:54:37;17.80;99.90
17423;DHT22;8829;47.932;7.810;2022-10-13T13:57:03;17.70;99.90
17423;DHT22;8829;47.932;7.810;2022-10-13T13:59:31;17.60;99.90
17423;DHT22;8829;47.932;7.810;2022-10-13T14:01:57;17.60;99.90
17423;DHT22;8829;47.932;7.810;2022-10-13T14:04:25;17.50;99.90
17423;DHT22;8829;47.932;7.810;2022-10-13T14:06:52;17.30;99.90
17423;DHT22;8829;47.932;7.810;2022-10-13T14:09:19;17.30;99.90
17423;DHT22;8829;47.932;7.810;2022-10-13T14:11:46;17.30;99.90
17423;DHT22;8829;47.932;7.810;2022-10-13T14:14:12;17.20;99.90
17423;DHT22;8829;47.932;7.810;2022-10-13T14:16:39;17.20;99.90
17423;DHT22;8829;47.932;7.810;2022-10-13T14:19:07;17.20;99.90
17423;DHT22;8829;47.932;7.810;2022-10-13T14:21:36;17.10;99.90
17423;DHT22;8829;47.932;7.810;2022-10-13T14:24:03;17.10;99.90
17423;DHT22;8829;47.932;7.810;2022-10-13T14:26:30;17.00;99.90
17423;DHT22;8829;47.932;7.810;2022-10-13T14:28:57;16.90;99.90
17423;DHT22;8829;47.932;7.810;2022-10-13T14:31:23;16.90;99.90
17423;DHT22;8829;47.932;7.810;2022-10-13T14:33:50;16.90;99.90
17423;DHT22;8829;47.932;7.810;2022-10-13T14:36:17;16.80;99.90
17423;DHT22;8829;47.932;7.810;2022-10-13T14:38:45;16.90;99.90
17423;DHT22;8829;47.932;7.810;2022-10-13T14:41:12;16.90;99.90
17423;DHT22;8829;47.932;7.810;2022-10-13T14:43:41;17.00;99.90
17423;DHT22;8829;47.932;7.810;2022-10-13T14:46:08;17.10;99.90
17423;DHT22;8829;47.932;7.810;2022-10-13T14:48:36;17.00;99.90
17423;DHT22;8829;47.932;7.810;2022-10-13T14:51:03;17.00;99.90
17423;DHT22;8829;47.932;7.810;2022-10-13T14:53:32;16.90;99.90
17423;DHT22;8829;47.932;7.810;2022-10-13T14:56:00;16.90;99.90
17423;DHT22;8829;47.932;7.810;2022-10-13T14:58:27;16.90;99.90
17423;DHT22;8829;47.932;7.810;2022-10-13T15:00:54;16.80;99.90
17423;DHT22;8829;47.932;7.810;2022-10-13T15:03:21;16.80;99.90
17423;DHT22;8829;47.932;7.810;2022-10-13T15:05:48;16.70;99.90
17423;DHT22;8829;47.932;7.810;2022-10-13T15:08:15;16.70;99.90
17423;DHT22;8829;47.932;7.810;2022-10-13T15:10:41;16.60;99.90
17423;DHT22;8829;47.932;7.810;2022-10-13T15:13:10;16.60;99.90
17423;DHT22;8829;47.932;7.810;2022-10-13T15:15:45;16.50;99.90
17423;DHT22;8829;47.932;7.810;2022-10-13T15:18:12;16.50;99.90
17423;DHT22;8829;47.932;7.810;2022-10-13T15:20:44;16.40;99.90
17423;DHT22;8829;47.932;7.810;2022-10-13T15:23:11;16.40;99.90
17423;DHT22;8829;47.932;7.810;2022-10-13T15:25:38;16.30;99.90
17423;DHT22;8829;47.932;7.810;2022-10-13T15:28:06;16.20;99.90
17423;DHT22;8829;47.932;7.810;2022-10-13T15:30:35;16.30;99.90
17423;DHT22;8829;47.932;7.810;2022-10-13T15:33:01;16.30;99.90
17423;DHT22;8829;47.932;7.810;2022-10-13T15:35:28;16.30;99.90
17423;DHT22;8829;47.932;7.810;2022-10-13T15:37:55;16.30;99.90
17423;DHT22;8829;47.932;7.810;2022-10-13T15:40:22;16.20;99.90
17423;DHT22;8829;47.932;7.810;2022-10-13T15:42:49;16.10;99.90
17423;DHT22;8829;47.932;7.810;2022-10-13T15:45:16;16.10;99.90
17423;DHT22;8829;47.932;7.810;2022-10-13T15:47:44;16.10;99.90
17423;DHT22;8829;47.932;7.810;2022-10-13T15:50:10;16.00;99.90
17423;DHT22;8829;47.932;7.810;2022-10-13T15:52:37;16.00;99.90
17423;DHT22;8829;47.932;7.810;2022-10-13T15:55:05;16.00;99.90
17423;DHT22;8829;47.932;7.810;2022-10-13T15:57:32;16.00;99.90
17423;DHT22;8829;47.932;7.810;2022-10-13T15:59:59;16.00;99.90
17423;DHT22;8829;47.932;7.810;2022-10-13T16:02:26;15.80;99.90
17423;DHT22;8829;47.932;7.810;2022-10-13T16:04:54;15.50;99.90
17423;DHT22;8829;47.932;7.810;2022-10-13T16:07:22;15.30;99.90
17423;DHT22;8829;47.932;7.810;2022-10-13T16:09:49;15.20;99.90
17423;DHT22;8829;47.932;7.810;2022-10-13T16:12:15;15.20;99.90
17423;DHT22;8829;47.932;7.810;2022-10-13T16:14:42;15.10;99.90